sensor_id;sensor_type;location;lat;lon;timestamp;temperature;humidity
36384;DHT22;22418;51.210;6.976;2023-02-02T00:01:07;9.70;99.90
36384;DHT22;22418;51.210;6.976;2023-02-02T00:03:38;9.60;99.90
36384;DHT22;22418;51.210;6.976;2023-02-02T00:06:09;9.60;99.90
36384;DHT22;22418;51.210;6.976;2023-02-02T00:08:39;9.70;99.90
36384;DHT22;22418;51.210;6.976;2023-02-02T00:11:10;9.70;99.90
36384;DHT22;22418;51.210;6.976;2023-02-02T00:13:41;9.80;99.90
36384;DHT22;22418;51.210;6.976;2023-02-02T00:19:00;9.80;99.90
36384;DHT22;22418;51.210;6.976;2023-02-02T00:21:31;9.80;99.90
36384;DHT22;22418;51.210;6.976;2023-02-02T00:24:02;9.70;99.90
36384;DHT22;22418;51.210;6.976;2023-02-02T00:26:32;9.80;99.90
36384;DHT22;22418;51.210;6.976;2023-02-02T00:29:04;9.70;99.90
36384;DHT22;22418;51.210;6.976;2023-02-02T00:31:35;9.70;99.90
36384;DHT22;22418;51.210;6.976;2023-02-02T00:34:05;9.70;99.90
36384;DHT22;22418;51.210;6.976;2023-02-02T00:36:36;9.70;99.90
36384;DHT22;22418;51.210;6.976;2023-02-02T00:39:07;9.70;99.90
36384;DHT22;22418;51.210;6.976;2023-02-02T00:41:38;9.70;99.90
36384;DHT22;22418;51.210;6.976;2023-02-02T00:44:09;9.70;99.90
36384;DHT22;22418;51.210;6.976;2023-02-02T00:46:58;9.60;99.90
36384;DHT22;22418;51.210;6.976;2023-02-02T00:49:29;9.60;99.90
36384;DHT22;22418;51.210;6.976;2023-02-02T00:51:59;9.60;99.90
36384;DHT22;22418;51.210;6.976;2023-02-02T00:54:30;9.60;99.90
36384;DHT22;22418;51.210;6.976;2023-02-02T00:57:00;9.70;99.90
36384;DHT22;22418;51.210;6.976;2023-02-02T00:59:31;9.80;99.90
36384;DHT22;22418;51.210;6.976;2023-02-02T01:02:02;9.80;99.90
36384;DHT22;22418;51.210;6.976;2023-02-02T01:04:32;9.70;99.90
36384;DHT22;22418;51.210;6.976;2023-02-02T01:07:03;9.60;99.90
36384;DHT22;22418;51.210;6.976;2023-02-02T01:09:34;9.60;99.90
36384;DHT22;22418;51.210;6.976;2023-02-02T01:12:04;9.70;99.90
36384;DHT22;22418;51.210;6.976;2023-02-02T01:14:35;9.60;99.90
36384;DHT22;22418;51.210;6.976;2023-02-02T01:17:05;9.50;99.90
36384;DHT22;22418;51.210;6.976;2023-02-02T01:19:36;9.60;99.90
36384;DHT22;22418;51.210;6.976;2023-02-02T01:22:07;9.60;99.90
36384;DHT22;22418;51.210;6.976;2023-02-02T01:24:38;9.60;99.90
36384;DHT22;22418;51.210;6.976;2023-02-02T01:27:09;9.60;99.90
36384;DHT22;22418;51.210;6.976;2023-02-02T01:29:39;9.60;99.90
36384;DHT22;22418;51.210;6.976;2023-02-02T01:32:10;9.70;99.90
36384;DHT22;22418;51.210;6.976;2023-02-02T01:34:41;9.60;99.90
36384;DHT22;22418;51.210;6.976;2023-02-02T01:37:15;9.60;99.90
36384;DHT22;22418;51.210;6.976;2023-02-02T01:42:24;9.60;99.90
36384;DHT22;22418;51.210;6.976;2023-02-02T01:47:51;9.60;99.90
36384;DHT22;22418;51.210;6.976;2023-02-02T01:50:27;9.60;99.90
36384;DHT22;22418;51.210;6.976;2023-02-02T01:53:01;9.60;99.90
36384;DHT22;22418;51.210;6.976;2023-02-02T01:55:34;9.60;99.90
36384;DHT22;22418;51.210;6.976;2023-02-02T01:58:47;9.50;99.90
36384;DHT22;22418;51.210;6.976;2023-02-02T02:01:11;9.50;99.90
36384;DHT22;22418;51.210;6.976;2023-02-02T02:03:42;9.60;99.90
36384;DHT22;22418;51.210;6.976;2023-02-02T02:06:16;9.60;99.90
36384;DHT22;22418;51.210;6.976;2023-02-02T02:09:02;9.70;99.90
36384;DHT22;22418;51.210;6.976;2023-02-02T02:11:34;9.60;99.90
36384;DHT22;22418;51.210;6.976;2023-02-02T02:14:08;9.60;99.90
36384;DHT22;22418;51.210;6.976;2023-02-02T02:19:59;9.70;99.90
36384;DHT22;22418;51.210;6.976;2023-02-02T02:23:23;9.60;99.90
36384;DHT22;22418;51.210;6.976;2023-02-02T02:32:26;9.60;99.90
36384;DHT22;22418;51.210;6.976;2023-02-02T02:38:15;9.50;99.90
36384;DHT22;22418;51.210;6.976;2023-02-02T02:40:52;9.50;99.90
36384;DHT22;22418;51.210;6.976;2023-02-02T02:43:28;9.50;99.90
36384;DHT22;22418;51.210;6.976;2023-02-02T02:46:01;9.50;99.90
36384;DHT22;22418;51.210;6.976;2023-02-02T02:48:31;9.40;99.90
36384;DHT22;22418;51.210;6.976;2023-02-02T02:53:56;9.40;99.90
36384;DHT22;22418;51.210;6.976;2023-02-02T02:56:40;9.40;99.90
36384;DHT22;22418;51.210;6.976;2023-02-02T02:59:41;9.40;99.90
36384;DHT22;22418;51.210;6.976;2023-02-02T03:02:33;9.40;99.90
36384;DHT22;22418;51.210;6.976;2023-02-02T03:07:42;9.40;99.90
36384;DHT22;22418;51.210;6.976;2023-02-02T03:10:17;9.40;99.90
36384;DHT22;22418;51.210;6.976;2023-02-02T03:12:49;9.40;99.90
36384;DHT22;22418;51.210;6.976;2023-02-02T03:15:20;9.30;99.90
36384;DHT22;22418;51.210;6.976;2023-02-02T03:17:52;9.30;99.90
36384;DHT22;22418;51.210;6.976;2023-02-02T03:20:23;9.40;99.90
36384;DHT22;22418;51.210;6.976;2023-02-02T03:22:53;9.30;99.90
36384;DHT22;22418;51.210;6.976;2023-02-02T03:25:24;9.30;99.90
36384;DHT22;22418;51.210;6.976;2023-02-02T03:27:55;9.30;99.90
36384;DHT22;22418;51.210;6.976;2023-02-02T03:30:26;9.40;99.90
36384;DHT22;22418;51.210;6.976;2023-02-02T03:32:56;9.30;99.90
36384;DHT22;22418;51.210;6.976;2023-02-02T03:35:27;9.30;99.90
36384;DHT22;22418;51.210;6.976;2023-02-02T03:37:58;9.30;99.90
36384;DHT22;22418;51.210;6.976;2023-02-02T03:40:28;9.30;99.90
36384;DHT22;22418;51.210;6.976;2023-02-02T03:42:59;9.40;99.90
36384;DHT22;22418;51.210;6.976;2023-02-02T03:45:30;9.30;99.90
36384;DHT22;22418;51.210;6.976;2023-02-02T03:48:04;9.30;99.90
36384;DHT22;22418;51.210;6.976;2023-02-02T03:50:36;9.30;99.90
36384;DHT22;22418;51.210;6.976;2023-02-02T03:53:06;9.40;99.90
36384;DHT22;22418;51.210;6.976;2023-02-02T03:55:37;9.30;99.90
36384;DHT22;22418;51.210;6.976;2023-02-02T03:58:09;9.40;99.90
36384;DHT22;22418;51.210;6.976;2023-02-02T04:00:40;9.40;99.90
36384;DHT22;22418;51.210;6.976;2023-02-02T04:03:10;9.30;99.90
36384;DHT22;22418;51.210;6.976;2023-02-02T04:05:41;9.30;99.90
36384;DHT22;22418;51.210;6.976;2023-02-02T04:08:11;9.30;99.90
36384;DHT22;22418;51.210;6.976;2023-02-02T04:10:42;9.40;99.90
36384;DHT22;22418;51.210;6.976;2023-02-02T04:13:13;9.40;99.90
36384;DHT22;22418;51.210;6.976;2023-02-02T04:15:43;9.40;99.90
36384;DHT22;22418;51.210;6.976;2023-02-02T04:18:14;9.40;99.90
36384;DHT22;22418;51.210;6.976;2023-02-02T04:20:44;9.30;99.90
36384;DHT22;22418;51.210;6.976;2023-02-02T04:23:15;9.20;99.90
36384;DHT22;22418;51.210;6.976;2023-02-02T04:25:51;9.20;99.90
36384;DHT22;22418;51.210;6.976;2023-02-02T04:28:22;9.10;99.90
36384;DHT22;22418;51.210;6.976;2023-02-02T04:30:54;9.10;99.90
36384;DHT22;22418;51.210;6.976;2023-02-02T04:33:26;9.10;99.90
36384;DHT22;22418;51.210;6.976;2023-02-02T04:35:57;9.20;99.90
36384;DHT22;22418;51.210;6.976;2023-02-02T04:38:27;9.30;99.90
36384;DHT22;22418;51.210;6.976;2023-02-02T04:40:58;9.20;99.90
36384;DHT22;22418;51.210;6.976;2023-02-02T04:43:35;9.20;99.90
36384;DHT22;22418;51.210;6.976;2023-02-02T04:46:06;9.30;99.90
36384;DHT22;22418;51.210;6.976;2023-02-02T04:48:37;9.30;99.90
36384;DHT22;22418;51.210;6.976;2023-02-02T04:51:10;9.30;99.90
36384;DHT22;22418;51.210;6.976;2023-02-02T04:53:41;9.30;99.90
36384;DHT22;22418;51.210;6.976;2023-02-02T04:56:14;9.20;99.90
36384;DHT22;22418;51.210;6.976;2023-02-02T04:58:46;9.20;99.90
36384;DHT22;22418;51.210;6.976;2023-02-02T05:01:18;9.20;99.90
36384;DHT22;22418;51.210;6.976;2023-02-02T05:03:49;9.20;99.90
36384;DHT22;22418;51.210;6.976;2023-02-02T05:06:20;9.30;99.90
36384;DHT22;22418;51.210;6.976;2023-02-02T05:08:50;9.30;99.90
36384;DHT22;22418;51.210;6.976;2023-02-02T05:11:22;9.30;99.90
36384;DHT22;22418;51.210;6.976;2023-02-02T05:13:53;9.30;99.90
36384;DHT22;22418;51.210;6.976;2023-02-02T05:16:24;9.30;99.90
36384;DHT22;22418;51.210;6.976;2023-02-02T05:18:55;9.30;99.90
36384;DHT22;22418;51.210;6.976;2023-02-02T05:21:26;9.20;99.90
36384;DHT22;22418;51.210;6.976;2023-02-02T05:23:57;9.10;99.90
36384;DHT22;22418;51.210;6.976;2023-02-02T05:26:27;9.20;99.90
36384;DHT22;22418;51.210;6.976;2023-02-02T05:28:58;9.20;99.90
36384;DHT22;22418;51.210;6.976;2023-02-02T05:31:28;9.20;99.90
36384;DHT22;22418;51.210;6.976;2023-02-02T05:34:00;9.20;99.90
36384;DHT22;22418;51.210;6.976;2023-02-02T05:36:31;9.20;99.90
36384;DHT22;22418;51.210;6.976;2023-02-02T05:39:02;9.20;99.90
36384;DHT22;22418;51.210;6.976;2023-02-02T05:41:34;9.20;99.90
36384;DHT22;22418;51.210;6.976;2023-02-02T05:44:05;9.20;99.90
36384;DHT22;22418;51.210;6.976;2023-02-02T05:46:36;9.30;99.90
36384;DHT22;22418;51.210;6.976;2023-02-02T05:49:07;9.30;99.90
36384;DHT22;22418;51.210;6.976;2023-02-02T05:51:42;9.30;99.90
36384;DHT22;22418;51.210;6.976;2023-02-02T05:54:14;9.30;99.90
36384;DHT22;22418;51.210;6.976;2023-02-02T05:56:50;9.30;99.90
36384;DHT22;22418;51.210;6.976;2023-02-02T05:59:21;9.30;99.90
36384;DHT22;22418;51.210;6.976;2023-02-02T06:01:52;9.30;99.90
36384;DHT22;22418;51.210;6.976;2023-02-02T06:04:23;9.30;99.90
36384;DHT22;22418;51.210;6.976;2023-02-02T06:06:54;9.20;99.90
36384;DHT22;22418;51.210;6.976;2023-02-02T06:09:24;9.20;99.90
36384;DHT22;22418;51.210;6.976;2023-02-02T06:11:55;9.30;99.90
36384;DHT22;22418;51.210;6.976;2023-02-02T06:14:26;9.30;99.90
36384;DHT22;22418;51.210;6.976;2023-02-02T06:16:56;9.30;99.90
36384;DHT22;22418;51.210;6.976;2023-02-02T06:19:27;9.20;99.90
36384;DHT22;22418;51.210;6.976;2023-02-02T06:21:57;9.20;99.90
36384;DHT22;22418;51.210;6.976;2023-02-02T06:24:28;9.20;99.90
36384;DHT22;22418;51.210;6.976;2023-02-02T06:26:58;9.10;99.90
36384;DHT22;22418;51.210;6.976;2023-02-02T06:29:29;9.20;99.90
36384;DHT22;22418;51.210;6.976;2023-02-02T06:31:59;9.30;99.90
36384;DHT22;22418;51.210;6.976;2023-02-02T06:34:30;9.20;99.90
36384;DHT22;22418;51.210;6.976;2023-02-02T06:37:00;9.20;99.90
36384;DHT22;22418;51.210;6.976;2023-02-02T06:39:31;9.20;99.90
36384;DHT22;22418;51.210;6.976;2023-02-02T06:42:02;9.30;99.90
36384;DHT22;22418;51.210;6.976;2023-02-02T06:44:32;9.30;99.90
36384;DHT22;22418;51.210;6.976;2023-02-02T06:47:03;9.30;99.90
36384;DHT22;22418;51.210;6.976;2023-02-02T06:49:33;9.20;99.90
36384;DHT22;22418;51.210;6.976;2023-02-02T06:52:04;9.20;99.90
36384;DHT22;22418;51.210;6.976;2023-02-02T06:54:34;9.30;99.90
36384;DHT22;22418;51.210;6.976;2023-02-02T06:57:05;9.30;99.90
36384;DHT22;22418;51.210;6.976;2023-02-02T06:59:35;9.30;99.90
36384;DHT22;22418;51.210;6.976;2023-02-02T07:02:11;9.30;99.90
36384;DHT22;22418;51.210;6.976;2023-02-02T07:04:42;9.30;99.90
36384;DHT22;22418;51.210;6.976;2023-02-02T07:07:13;9.30;99.90
36384;DHT22;22418;51.210;6.976;2023-02-02T07:09:43;9.20;99.90
36384;DHT22;22418;51.210;6.976;2023-02-02T07:12:14;9.20;99.90
36384;DHT22;22418;51.210;6.976;2023-02-02T07:14:44;9.20;99.90
36384;DHT22;22418;51.210;6.976;2023-02-02T07:17:15;9.20;99.90
36384;DHT22;22418;51.210;6.976;2023-02-02T07:19:46;9.20;99.90
36384;DHT22;22418;51.210;6.976;2023-02-02T07:22:16;9.20;99.90
36384;DHT22;22418;51.210;6.976;2023-02-02T07:24:47;9.20;99.90
36384;DHT22;22418;51.210;6.976;2023-02-02T07:27:17;9.20;99.90
36384;DHT22;22418;51.210;6.976;2023-02-02T07:29:48;9.30;99.90
36384;DHT22;22418;51.210;6.976;2023-02-02T07:32:18;9.20;99.90
36384;DHT22;22418;51.210;6.976;2023-02-02T07:34:49;9.20;99.90
36384;DHT22;22418;51.210;6.976;2023-02-02T07:37:19;9.30;99.90
36384;DHT22;22418;51.210;6.976;2023-02-02T07:39:50;9.20;99.90
36384;DHT22;22418;51.210;6.976;2023-02-02T07:42:20;9.30;99.90
36384;DHT22;22418;51.210;6.976;2023-02-02T07:44:51;9.30;99.90
36384;DHT22;22418;51.210;6.976;2023-02-02T07:47:21;9.30;99.90
36384;DHT22;22418;51.210;6.976;2023-02-02T07:49:52;9.30;99.90
36384;DHT22;22418;51.210;6.976;2023-02-02T07:52:22;9.40;99.90
36384;DHT22;22418;51.210;6.976;2023-02-02T07:54:53;9.30;99.90
36384;DHT22;22418;51.210;6.976;2023-02-02T07:57:24;9.20;99.90
36384;DHT22;22418;51.210;6.976;2023-02-02T07:59:54;9.20;99.90
36384;DHT22;22418;51.210;6.976;2023-02-02T08:02:25;9.20;99.90
36384;DHT22;22418;51.210;6.976;2023-02-02T08:04:55;9.30;99.90
36384;DHT22;22418;51.210;6.976;2023-02-02T08:07:26;9.30;99.90
36384;DHT22;22418;51.210;6.976;2023-02-02T08:09:56;9.30;99.90
36384;DHT22;22418;51.210;6.976;2023-02-02T08:12:27;9.20;99.90
36384;DHT22;22418;51.210;6.976;2023-02-02T08:14:58;9.20;99.90
36384;DHT22;22418;51.210;6.976;2023-02-02T08:17:28;9.20;99.90
36384;DHT22;22418;51.210;6.976;2023-02-02T08:19:59;9.20;99.90
36384;DHT22;22418;51.210;6.976;2023-02-02T08:22:30;9.20;99.90
36384;DHT22;22418;51.210;6.976;2023-02-02T08:25:00;9.20;99.90
36384;DHT22;22418;51.210;6.976;2023-02-02T08:27:31;9.20;99.90
36384;DHT22;22418;51.210;6.976;2023-02-02T08:30:01;9.20;99.90
36384;DHT22;22418;51.210;6.976;2023-02-02T08:32:32;9.20;99.90
36384;DHT22;22418;51.210;6.976;2023-02-02T08:35:02;9.20;99.90
36384;DHT22;22418;51.210;6.976;2023-02-02T08:37:33;9.30;99.90
36384;DHT22;22418;51.210;6.976;2023-02-02T08:40:04;9.30;99.90
36384;DHT22;22418;51.210;6.976;2023-02-02T08:42:35;9.20;99.90
36384;DHT22;22418;51.210;6.976;2023-02-02T08:45:06;9.30;99.90
36384;DHT22;22418;51.210;6.976;2023-02-02T08:47:36;9.30;99.90
36384;DHT22;22418;51.210;6.976;2023-02-02T08:50:08;9.30;99.90
36384;DHT22;22418;51.210;6.976;2023-02-02T08:52:38;9.30;99.90
36384;DHT22;22418;51.210;6.976;2023-02-02T08:55:09;9.40;99.90
36384;DHT22;22418;51.210;6.976;2023-02-02T08:57:40;9.40;99.90
36384;DHT22;22418;51.210;6.976;2023-02-02T09:00:11;9.30;99.90
36384;DHT22;22418;51.210;6.976;2023-02-02T09:02:41;9.30;99.90
36384;DHT22;22418;51.210;6.976;2023-02-02T09:05:12;9.40;99.90
36384;DHT22;22418;51.210;6.976;2023-02-02T09:07:42;9.30;99.90
36384;DHT22;22418;51.210;6.976;2023-02-02T09:10:13;9.30;99.90
36384;DHT22;22418;51.210;6.976;2023-02-02T09:12:43;9.30;99.90
36384;DHT22;22418;51.210;6.976;2023-02-02T09:15:14;9.40;99.90
36384;DHT22;22418;51.210;6.976;2023-02-02T09:17:45;9.30;99.90
36384;DHT22;22418;51.210;6.976;2023-02-02T09:20:15;9.30;99.90
36384;DHT22;22418;51.210;6.976;2023-02-02T09:22:46;9.30;99.90
36384;DHT22;22418;51.210;6.976;2023-02-02T09:25:16;9.30;99.90
36384;DHT22;22418;51.210;6.976;2023-02-02T09:27:47;9.30;99.90
36384;DHT22;22418;51.210;6.976;2023-02-02T09:30:18;9.30;99.90
36384;DHT22;22418;51.210;6.976;2023-02-02T09:32:48;9.30;99.90
36384;DHT22;22418;51.210;6.976;2023-02-02T09:35:20;9.30;99.90
36384;DHT22;22418;51.210;6.976;2023-02-02T09:37:50;9.30;99.90
36384;DHT22;22418;51.210;6.976;2023-02-02T09:40:21;9.20;99.90
36384;DHT22;22418;51.210;6.976;2023-02-02T09:43:04;9.20;99.90
36384;DHT22;22418;51.210;6.976;2023-02-02T09:46:00;9.30;99.90
36384;DHT22;22418;51.210;6.976;2023-02-02T09:48:48;9.30;99.90
36384;DHT22;22418;51.210;6.976;2023-02-02T09:51:25;9.30;99.90
36384;DHT22;22418;51.210;6.976;2023-02-02T09:54:05;9.30;99.90
36384;DHT22;22418;51.210;6.976;2023-02-02T09:56:43;9.30;99.90
36384;DHT22;22418;51.210;6.976;2023-02-02T09:59:18;9.30;99.90
36384;DHT22;22418;51.210;6.976;2023-02-02T10:01:52;9.30;99.90
36384;DHT22;22418;51.210;6.976;2023-02-02T10:04:35;9.40;99.90
36384;DHT22;22418;51.210;6.976;2023-02-02T10:07:47;9.40;99.90
36384;DHT22;22418;51.210;6.976;2023-02-02T10:10:13;9.50;99.90
36384;DHT22;22418;51.210;6.976;2023-02-02T10:12:58;9.50;99.90
36384;DHT22;22418;51.210;6.976;2023-02-02T10:15:43;9.50;99.90
36384;DHT22;22418;51.210;6.976;2023-02-02T10:18:52;9.40;99.90
36384;DHT22;22418;51.210;6.976;2023-02-02T10:24:02;9.50;99.90
36384;DHT22;22418;51.210;6.976;2023-02-02T10:26:39;9.40;99.90
36384;DHT22;22418;51.210;6.976;2023-02-02T10:37:55;9.30;99.90
36384;DHT22;22418;51.210;6.976;2023-02-02T10:40:54;9.40;99.90
36384;DHT22;22418;51.210;6.976;2023-02-02T10:55:07;9.40;99.90
36384;DHT22;22418;51.210;6.976;2023-02-02T11:00:53;9.60;99.90
36384;DHT22;22418;51.210;6.976;2023-02-02T11:03:27;9.60;99.90
36384;DHT22;22418;51.210;6.976;2023-02-02T11:06:00;9.60;99.90
36384;DHT22;22418;51.210;6.976;2023-02-02T11:08:52;9.70;99.90
36384;DHT22;22418;51.210;6.976;2023-02-02T11:11:30;9.50;99.90
36384;DHT22;22418;51.210;6.976;2023-02-02T11:16:42;9.50;99.90
36384;DHT22;22418;51.210;6.976;2023-02-02T11:19:27;9.50;99.90
36384;DHT22;22418;51.210;6.976;2023-02-02T11:22:01;9.60;99.90
36384;DHT22;22418;51.210;6.976;2023-02-02T11:27:25;9.60;99.90
36384;DHT22;22418;51.210;6.976;2023-02-02T11:29:58;9.50;99.90
36384;DHT22;22418;51.210;6.976;2023-02-02T11:32:33;9.60;99.90
36384;DHT22;22418;51.210;6.976;2023-02-02T11:37:38;9.50;99.90
36384;DHT22;22418;51.210;6.976;2023-02-02T11:40:38;9.50;99.90
36384;DHT22;22418;51.210;6.976;2023-02-02T11:43:17;9.50;99.90
36384;DHT22;22418;51.210;6.976;2023-02-02T11:45:57;9.50;99.90
36384;DHT22;22418;51.210;6.976;2023-02-02T11:48:32;9.50;99.90
36384;DHT22;22418;51.210;6.976;2023-02-02T11:51:04;9.60;99.90
36384;DHT22;22418;51.210;6.976;2023-02-02T11:53:45;9.60;99.90
36384;DHT22;22418;51.210;6.976;2023-02-02T11:56:22;9.60;99.90
36384;DHT22;22418;51.210;6.976;2023-02-02T11:58:56;9.60;99.90
36384;DHT22;22418;51.210;6.976;2023-02-02T12:01:38;9.50;99.90
36384;DHT22;22418;51.210;6.976;2023-02-02T12:06:45;9.70;99.90
36384;DHT22;22418;51.210;6.976;2023-02-02T12:09:19;9.60;99.90
36384;DHT22;22418;51.210;6.976;2023-02-02T12:15:11;9.70;99.90
36384;DHT22;22418;51.210;6.976;2023-02-02T12:17:45;9.70;99.90
36384;DHT22;22418;51.210;6.976;2023-02-02T12:20:38;9.70;99.90
36384;DHT22;22418;51.210;6.976;2023-02-02T12:29:09;9.70;99.90
36384;DHT22;22418;51.210;6.976;2023-02-02T12:35:01;9.80;99.90
36384;DHT22;22418;51.210;6.976;2023-02-02T12:38:02;9.80;99.90
36384;DHT22;22418;51.210;6.976;2023-02-02T12:40:55;9.90;99.90
36384;DHT22;22418;51.210;6.976;2023-02-02T12:43:43;9.90;99.90
36384;DHT22;22418;51.210;6.976;2023-02-02T12:49:32;10.00;99.90
36384;DHT22;22418;51.210;6.976;2023-02-02T12:55:13;10.00;99.90
36384;DHT22;22418;51.210;6.976;2023-02-02T12:58:04;10.00;99.90
36384;DHT22;22418;51.210;6.976;2023-02-02T13:00:58;10.00;99.90
36384;DHT22;22418;51.210;6.976;2023-02-02T13:04:03;10.00;99.90
36384;DHT22;22418;51.210;6.976;2023-02-02T13:07:00;10.10;99.90
36384;DHT22;22418;51.210;6.976;2023-02-02T13:09:51;10.10;99.90
36384;DHT22;22418;51.210;6.976;2023-02-02T13:12:28;10.10;99.90
36384;DHT22;22418;51.210;6.976;2023-02-02T13:15:06;10.20;99.90
36384;DHT22;22418;51.210;6.976;2023-02-02T13:20:24;10.20;99.90
36384;DHT22;22418;51.210;6.976;2023-02-02T13:23:01;10.20;99.90
36384;DHT22;22418;51.210;6.976;2023-02-02T13:26:23;10.20;99.90
36384;DHT22;22418;51.210;6.976;2023-02-02T13:31:41;10.20;99.90
36384;DHT22;22418;51.210;6.976;2023-02-02T13:37:01;10.20;99.90
36384;DHT22;22418;51.210;6.976;2023-02-02T13:39:41;10.20;99.90
36384;DHT22;22418;51.210;6.976;2023-02-02T13:42:31;10.30;99.90
36384;DHT22;22418;51.210;6.976;2023-02-02T13:45:32;10.20;99.90
36384;DHT22;22418;51.210;6.976;2023-02-02T13:48:38;10.10;99.90
36384;DHT22;22418;51.210;6.976;2023-02-02T13:59:59;10.30;99.90
36384;DHT22;22418;51.210;6.976;2023-02-02T14:05:05;10.30;99.90
36384;DHT22;22418;51.210;6.976;2023-02-02T14:07:43;10.30;99.90
36384;DHT22;22418;51.210;6.976;2023-02-02T14:10:27;10.30;99.90
36384;DHT22;22418;51.210;6.976;2023-02-02T14:16:04;10.30;99.90
36384;DHT22;22418;51.210;6.976;2023-02-02T14:37:57;10.10;99.90
36384;DHT22;22418;51.210;6.976;2023-02-02T14:43:47;10.10;99.90
36384;DHT22;22418;51.210;6.976;2023-02-02T14:46:31;10.00;99.90
36384;DHT22;22418;51.210;6.976;2023-02-02T14:51:45;10.20;99.90
36384;DHT22;22418;51.210;6.976;2023-02-02T14:54:39;10.10;99.90
36384;DHT22;22418;51.210;6.976;2023-02-02T14:57:26;10.10;99.90
36384;DHT22;22418;51.210;6.976;2023-02-02T14:59:57;10.10;99.90
36384;DHT22;22418;51.210;6.976;2023-02-02T15:08:29;10.20;99.90
36384;DHT22;22418;51.210;6.976;2023-02-02T15:11:03;10.20;99.90
36384;DHT22;22418;51.210;6.976;2023-02-02T15:14:02;10.20;99.90
36384;DHT22;22418;51.210;6.976;2023-02-02T15:16:38;10.20;99.90
36384;DHT22;22418;51.210;6.976;2023-02-02T15:19:29;10.20;99.90
36384;DHT22;22418;51.210;6.976;2023-02-02T15:25:02;10.20;99.90
36384;DHT22;22418;51.210;6.976;2023-02-02T15:27:36;10.20;99.90
36384;DHT22;22418;51.210;6.976;2023-02-02T15:30:10;10.30;99.90
36384;DHT22;22418;51.210;6.976;2023-02-02T15:32:42;10.30;99.90
36384;DHT22;22418;51.210;6.976;2023-02-02T15:35:19;10.30;99.90
36384;DHT22;22418;51.210;6.976;2023-02-02T15:37:57;10.20;99.90
36384;DHT22;22418;51.210;6.976;2023-02-02T15:40:30;10.20;99.90
36384;DHT22;22418;51.210;6.976;2023-02-02T15:43:04;10.20;99.90
36384;DHT22;22418;51.210;6.976;2023-02-02T15:45:42;10.20;99.90
36384;DHT22;22418;51.210;6.976;2023-02-02T15:48:21;10.10;99.90
36384;DHT22;22418;51.210;6.976;2023-02-02T15:50:53;10.10;99.90
36384;DHT22;22418;51.210;6.976;2023-02-02T15:53:51;10.10;99.90
36384;DHT22;22418;51.210;6.976;2023-02-02T15:58:54;10.10;99.90
36384;DHT22;22418;51.210;6.976;2023-02-02T16:01:29;10.20;99.90
36384;DHT22;22418;51.210;6.976;2023-02-02T16:04:19;10.10;99.90
36384;DHT22;22418;51.210;6.976;2023-02-02T16:06:52;10.00;99.90
36384;DHT22;22418;51.210;6.976;2023-02-02T16:09:26;10.00;99.90
36384;DHT22;22418;51.210;6.976;2023-02-02T16:11:58;10.00;99.90
36384;DHT22;22418;51.210;6.976;2023-02-02T16:14:29;10.00;99.90
36384;DHT22;22418;51.210;6.976;2023-02-02T16:17:16;10.00;99.90
36384;DHT22;22418;51.210;6.976;2023-02-02T16:19:49;10.00;99.90
36384;DHT22;22418;51.210;6.976;2023-02-02T16:22:25;10.00;99.90
36384;DHT22;22418;51.210;6.976;2023-02-02T16:25:02;10.10;99.90
36384;DHT22;22418;51.210;6.976;2023-02-02T16:27:35;10.10;99.90
36384;DHT22;22418;51.210;6.976;2023-02-02T16:30:08;10.10;99.90
36384;DHT22;22418;51.210;6.976;2023-02-02T16:32:44;10.10;99.90
36384;DHT22;22418;51.210;6.976;2023-02-02T16:35:37;10.10;99.90
36384;DHT22;22418;51.210;6.976;2023-02-02T16:41:04;10.20;99.90
36384;DHT22;22418;51.210;6.976;2023-02-02T16:43:38;10.20;99.90
36384;DHT22;22418;51.210;6.976;2023-02-02T16:46:11;10.20;99.90
36384;DHT22;22418;51.210;6.976;2023-02-02T16:48:44;10.20;99.90
36384;DHT22;22418;51.210;6.976;2023-02-02T16:51:24;10.20;99.90
36384;DHT22;22418;51.210;6.976;2023-02-02T16:53:59;10.20;99.90
36384;DHT22;22418;51.210;6.976;2023-02-02T16:59:04;10.20;99.90
36384;DHT22;22418;51.210;6.976;2023-02-02T17:01:39;10.00;99.90
36384;DHT22;22418;51.210;6.976;2023-02-02T17:04:26;10.10;99.90
36384;DHT22;22418;51.210;6.976;2023-02-02T17:07:06;10.10;99.90
36384;DHT22;22418;51.210;6.976;2023-02-02T17:09:43;10.10;99.90
36384;DHT22;22418;51.210;6.976;2023-02-02T17:17:48;10.10;99.90
36384;DHT22;22418;51.210;6.976;2023-02-02T17:20:19;10.10;99.90
36384;DHT22;22418;51.210;6.976;2023-02-02T17:23:04;10.10;99.90
36384;DHT22;22418;51.210;6.976;2023-02-02T17:25:40;10.10;99.90
36384;DHT22;22418;51.210;6.976;2023-02-02T17:28:13;10.00;99.90
36384;DHT22;22418;51.210;6.976;2023-02-02T17:30:47;10.10;99.90
36384;DHT22;22418;51.210;6.976;2023-02-02T17:33:19;10.10;99.90
36384;DHT22;22418;51.210;6.976;2023-02-02T17:35:49;10.00;99.90
36384;DHT22;22418;51.210;6.976;2023-02-02T17:38:23;10.00;99.90
36384;DHT22;22418;51.210;6.976;2023-02-02T17:40:54;10.00;99.90
36384;DHT22;22418;51.210;6.976;2023-02-02T17:43:25;10.00;99.90
36384;DHT22;22418;51.210;6.976;2023-02-02T17:45:56;10.00;99.90
36384;DHT22;22418;51.210;6.976;2023-02-02T17:48:27;10.00;99.90
36384;DHT22;22418;51.210;6.976;2023-02-02T17:50:57;10.00;99.90
36384;DHT22;22418;51.210;6.976;2023-02-02T17:53:28;10.00;99.90
36384;DHT22;22418;51.210;6.976;2023-02-02T17:56:00;10.00;99.90
36384;DHT22;22418;51.210;6.976;2023-02-02T17:58:31;9.90;99.90
36384;DHT22;22418;51.210;6.976;2023-02-02T18:01:01;9.90;99.90
36384;DHT22;22418;51.210;6.976;2023-02-02T18:03:35;10.00;99.90
36384;DHT22;22418;51.210;6.976;2023-02-02T18:06:07;10.00;99.90
36384;DHT22;22418;51.210;6.976;2023-02-02T18:08:39;10.10;99.90
36384;DHT22;22418;51.210;6.976;2023-02-02T18:11:11;10.10;99.90
36384;DHT22;22418;51.210;6.976;2023-02-02T18:13:42;10.00;99.90
36384;DHT22;22418;51.210;6.976;2023-02-02T18:16:13;10.00;99.90
36384;DHT22;22418;51.210;6.976;2023-02-02T18:18:44;10.00;99.90
36384;DHT22;22418;51.210;6.976;2023-02-02T18:21:15;10.00;99.90
36384;DHT22;22418;51.210;6.976;2023-02-02T18:23:46;10.00;99.90
36384;DHT22;22418;51.210;6.976;2023-02-02T18:26:21;10.00;99.90
36384;DHT22;22418;51.210;6.976;2023-02-02T18:28:51;10.10;99.90
36384;DHT22;22418;51.210;6.976;2023-02-02T18:31:22;10.00;99.90
36384;DHT22;22418;51.210;6.976;2023-02-02T18:33:53;10.00;99.90
36384;DHT22;22418;51.210;6.976;2023-02-02T18:36:23;10.00;99.90
36384;DHT22;22418;51.210;6.976;2023-02-02T18:38:55;10.00;99.90
36384;DHT22;22418;51.210;6.976;2023-02-02T18:41:27;10.00;99.90
36384;DHT22;22418;51.210;6.976;2023-02-02T18:43:57;10.00;99.90
36384;DHT22;22418;51.210;6.976;2023-02-02T18:46:28;10.10;99.90
36384;DHT22;22418;51.210;6.976;2023-02-02T18:49:02;10.00;99.90
36384;DHT22;22418;51.210;6.976;2023-02-02T18:51:33;10.00;99.90
36384;DHT22;22418;51.210;6.976;2023-02-02T18:54:04;10.10;99.90
36384;DHT22;22418;51.210;6.976;2023-02-02T18:56:34;10.10;99.90
36384;DHT22;22418;51.210;6.976;2023-02-02T18:59:05;10.10;99.90
36384;DHT22;22418;51.210;6.976;2023-02-02T19:01:36;10.20;99.90